Time;durP1;ratioP1;P1;durP2;ratioP2;P2;SDS_P1;SDS_P2;PMS_P1;PMS_P2;Temp;Humidity;BMP_temperature;BMP_pressure;BME280_temperature;BME280_humidity;BME280_pressure;Samples;Min_cycle;Max_cycle;Signal;HPM_P1;HPM_P2
2023/06/01 00:00:35;;;;;;;21.23;11.47;;;;;;;;;;5114565;28;20288;-78
2023/06/01 00:03:02;;;;;;;20.17;11.37;;;;;;;;;;5114331;28;20194;-78
2023/06/01 00:05:29;;;;;;;19.30;10.77;;;;;;;;;;5114785;28;20193;-77
2023/06/01 00:07:57;;;;;;;21.30;11.50;;;;;;;;;;5114435;28;20194;-77
2023/06/01 00:10:24;;;;;;;26.40;12.33;;;;;;;;;;5114630;28;20217;-77
2023/06/01 00:12:51;;;;;;;21.87;12.00;;;;;;;;;;5114633;27;20281;-77
2023/06/01 00:15:18;;;;;;;26.97;12.80;;;;;;;;;;5114258;28;20297;-77
2023/06/01 00:17:51;;;;;;;23.70;12.53;;;;;;;;;;5114475;28;20197;-77
2023/06/01 00:20:18;;;;;;;26.40;12.17;;;;;;;;;;5114178;28;20849;-78
2023/06/01 00:22:46;;;;;;;25.47;12.23;;;;;;;;;;5114038;28;20666;-78
2023/06/01 00:25:13;;;;;;;25.13;12.10;;;;;;;;;;5113445;28;20221;-77
2023/06/01 00:27:40;;;;;;;26.67;12.87;;;;;;;;;;5114540;28;20189;-77
2023/06/01 00:30:08;;;;;;;23.93;12.00;;;;;;;;;;5114220;28;20194;-77
2023/06/01 00:32:36;;;;;;;26.03;12.97;;;;;;;;;;5114076;28;20841;-78
2023/06/01 00:35:04;;;;;;;24.17;12.90;;;;;;;;;;5113656;28;20230;-78
2023/06/01 00:37:32;;;;;;;28.40;13.73;;;;;;;;;;5114229;28;20210;-78
2023/06/01 00:39:59;;;;;;;25.50;13.67;;;;;;;;;;5114476;28;20221;-78
2023/06/01 00:42:26;;;;;;;33.83;13.93;;;;;;;;;;5114075;28;20281;-77
2023/06/01 00:44:54;;;;;;;22.83;13.13;;;;;;;;;;5113385;28;20328;-78
2023/06/01 00:47:21;;;;;;;23.63;13.03;;;;;;;;;;5113595;28;20193;-77
2023/06/01 00:49:49;;;;;;;27.60;14.53;;;;;;;;;;5113914;28;20236;-77
2023/06/01 00:52:17;;;;;;;26.10;14.13;;;;;;;;;;5113668;28;20289;-76
2023/06/01 00:54:45;;;;;;;27.20;14.03;;;;;;;;;;5113812;27;20848;-77
2023/06/01 00:57:12;;;;;;;24.87;13.37;;;;;;;;;;5113404;28;20219;-77
2023/06/01 00:59:39;;;;;;;26.53;13.83;;;;;;;;;;5113086;28;20651;-78
2023/06/01 01:02:08;;;;;;;23.33;13.27;;;;;;;;;;5113599;28;20197;-79
2023/06/01 01:04:35;;;;;;;25.50;13.97;;;;;;;;;;5113683;28;20241;-78
2023/06/01 01:07:06;;;;;;;32.17;14.63;;;;;;;;;;5113459;28;20729;-78
2023/06/01 01:09:37;;;;;;;29.53;15.10;;;;;;;;;;5113484;28;20197;-77
2023/06/01 01:12:09;;;;;;;25.70;14.90;;;;;;;;;;5113681;28;20284;-77
2023/06/01 01:14:38;;;;;;;24.57;13.63;;;;;;;;;;5113175;28;20193;-77
2023/06/01 01:17:10;;;;;;;26.90;14.60;;;;;;;;;;5113340;28;20218;-78
2023/06/01 01:19:45;;;;;;;25.77;14.13;;;;;;;;;;5113060;27;20250;-77
2023/06/01 01:22:20;;;;;;;27.07;15.07;;;;;;;;;;5113349;27;20280;-77
2023/06/01 01:24:55;;;;;;;26.27;14.00;;;;;;;;;;5112667;28;20315;-77
2023/06/01 01:27:25;;;;;;;26.77;14.10;;;;;;;;;;5112800;28;20760;-78
2023/06/01 01:29:56;;;;;;;28.80;14.90;;;;;;;;;;5112752;28;20193;-78
2023/06/01 01:32:25;;;;;;;22.93;14.50;;;;;;;;;;5112749;28;20205;-78
2023/06/01 01:34:53;;;;;;;26.20;14.77;;;;;;;;;;5112403;28;20265;-78
2023/06/01 01:37:23;;;;;;;27.17;14.63;;;;;;;;;;5111711;28;20285;-77
2023/06/01 01:39:50;;;;;;;24.57;14.63;;;;;;;;;;5113179;27;20225;-78
2023/06/01 01:42:17;;;;;;;25.53;14.90;;;;;;;;;;5112930;28;20276;-76
2023/06/01 01:44:45;;;;;;;23.27;14.03;;;;;;;;;;5112368;27;20320;-78
2023/06/01 01:47:18;;;;;;;27.93;15.10;;;;;;;;;;5112548;28;20890;-78
2023/06/01 01:49:46;;;;;;;25.83;14.50;;;;;;;;;;5112899;28;20284;-78
2023/06/01 01:52:15;;;;;;;28.73;14.67;;;;;;;;;;5112676;28;20193;-78
2023/06/01 01:54:44;;;;;;;29.90;15.37;;;;;;;;;;5112058;28;20276;-77
2023/06/01 01:57:11;;;;;;;24.87;14.30;;;;;;;;;;5112528;28;20202;-78
2023/06/01 01:59:39;;;;;;;28.37;15.13;;;;;;;;;;5112167;28;20229;-78
2023/06/01 02:02:06;;;;;;;28.17;15.10;;;;;;;;;;5112399;28;20284;-77
2023/06/01 02:04:39;;;;;;;25.07;14.57;;;;;;;;;;5112391;28;20642;-77
2023/06/01 02:07:06;;;;;;;25.33;14.60;;;;;;;;;;5112392;27;20289;-77
2023/06/01 02:09:33;;;;;;;21.93;14.03;;;;;;;;;;5104021;28;20657;-78
2023/06/01 02:12:01;;;;;;;31.40;15.70;;;;;;;;;;5092035;28;20214;-77
2023/06/01 02:14:29;;;;;;;25.90;15.27;;;;;;;;;;5097844;28;20621;-77
2023/06/01 02:16:57;;;;;;;26.37;15.77;;;;;;;;;;5112609;28;20225;-77
2023/06/01 02:19:24;;;;;;;25.03;15.83;;;;;;;;;;5112175;28;20205;-77
2023/06/01 02:21:53;;;;;;;29.13;16.80;;;;;;;;;;5111936;28;20201;-76
2023/06/01 02:24:21;;;;;;;29.80;16.80;;;;;;;;;;5112108;28;20325;-77
2023/06/01 02:26:51;;;;;;;23.63;15.70;;;;;;;;;;5111728;28;20212;-78
2023/06/01 02:29:21;;;;;;;28.50;16.53;;;;;;;;;;5111974;28;20189;-77
2023/06/01 02:31:48;;;;;;;26.20;16.53;;;;;;;;;;5112161;28;20193;-77
2023/06/01 02:34:16;;;;;;;30.40;16.87;;;;;;;;;;5111730;28;20336;-77
2023/06/01 02:36:43;;;;;;;32.47;17.63;;;;;;;;;;5111729;28;20193;-78
2023/06/01 02:39:12;;;;;;;28.93;16.20;;;;;;;;;;5111846;28;20201;-77
2023/06/01 02:41:39;;;;;;;28.27;16.90;;;;;;;;;;5111168;28;20289;-77
2023/06/01 02:44:06;;;;;;;29.40;16.87;;;;;;;;;;5111563;28;20284;-77
2023/06/01 02:46:34;;;;;;;29.00;17.73;;;;;;;;;;5111771;28;20194;-77
2023/06/01 02:49:01;;;;;;;29.40;17.97;;;;;;;;;;5111562;28;20196;-78
2023/06/01 02:51:28;;;;;;;26.90;17.43;;;;;;;;;;5111775;28;20288;-77
2023/06/01 02:53:55;;;;;;;28.93;17.93;;;;;;;;;;5111738;28;20208;-78
2023/06/01 02:56:24;;;;;;;26.63;17.13;;;;;;;;;;5111428;28;20197;-78
2023/06/01 02:58:51;;;;;;;26.80;16.53;;;;;;;;;;5111538;28;20221;-77
2023/06/01 03:01:20;;;;;;;27.20;17.43;;;;;;;;;;5111536;28;20221;-77
2023/06/01 03:03:48;;;;;;;28.87;17.17;;;;;;;;;;5111513;28;20189;-77
2023/06/01 03:06:17;;;;;;;30.33;17.17;;;;;;;;;;5111488;28;20712;-77
2023/06/01 03:08:45;;;;;;;28.33;18.20;;;;;;;;;;5111321;28;20194;-77
2023/06/01 03:11:12;;;;;;;30.13;17.43;;;;;;;;;;5111266;28;20208;-77
2023/06/01 03:13:40;;;;;;;27.17;18.23;;;;;;;;;;5111746;28;20215;-76
2023/06/01 03:16:08;;;;;;;30.23;17.87;;;;;;;;;;5111306;28;20289;-77
2023/06/01 03:18:35;;;;;;;28.17;17.47;;;;;;;;;;5111911;28;20232;-79
2023/06/01 03:21:02;;;;;;;29.17;18.17;;;;;;;;;;5111539;28;20532;-77
2023/06/01 03:23:30;;;;;;;31.93;17.60;;;;;;;;;;5111410;28;20229;-75
2023/06/01 03:25:57;;;;;;;30.73;18.57;;;;;;;;;;5111113;28;20236;-76
2023/06/01 03:28:24;;;;;;;31.37;18.43;;;;;;;;;;5111438;28;20733;-76
2023/06/01 03:30:53;;;;;;;31.80;18.50;;;;;;;;;;5111619;28;20204;-78
2023/06/01 03:33:20;;;;;;;26.67;18.00;;;;;;;;;;5111311;28;20752;-77
2023/06/01 03:35:49;;;;;;;33.87;18.10;;;;;;;;;;5110973;28;20241;-78
2023/06/01 03:38:16;;;;;;;33.50;19.63;;;;;;;;;;5111262;28;20190;-77
2023/06/01 03:40:43;;;;;;;32.13;18.63;;;;;;;;;;5110728;28;20190;-77
2023/06/01 03:43:11;;;;;;;29.10;18.30;;;;;;;;;;5111380;28;20246;-77
2023/06/01 03:45:38;;;;;;;34.67;20.40;;;;;;;;;;5111316;28;20230;-78
2023/06/01 03:48:08;;;;;;;30.73;19.57;;;;;;;;;;5111163;28;20289;-77
2023/06/01 03:50:35;;;;;;;33.97;20.93;;;;;;;;;;5110869;28;20197;-77
2023/06/01 03:53:02;;;;;;;33.80;20.87;;;;;;;;;;5111179;28;20222;-77
2023/06/01 03:55:30;;;;;;;30.70;20.93;;;;;;;;;;5111089;28;20226;-77
2023/06/01 03:57:57;;;;;;;31.90;19.83;;;;;;;;;;5111241;28;20190;-77
2023/06/01 04:00:25;;;;;;;33.33;20.00;;;;;;;;;;5113524;28;20665;-77
2023/06/01 04:02:53;;;;;;;32.30;21.10;;;;;;;;;;5114499;28;20194;-77
2023/06/01 04:05:22;;;;;;;32.33;20.93;;;;;;;;;;5114596;28;20316;-77
2023/06/01 04:07:50;;;;;;;33.37;20.43;;;;;;;;;;5114551;28;20220;-77
2023/06/01 04:10:17;;;;;;;33.33;21.70;;;;;;;;;;5114405;28;20220;-77
2023/06/01 04:12:45;;;;;;;33.60;21.80;;;;;;;;;;5114133;28;20292;-76
2023/06/01 04:15:12;;;;;;;33.87;21.93;;;;;;;;;;5114856;28;20296;-77
2023/06/01 04:17:40;;;;;;;35.10;21.93;;;;;;;;;;5114524;28;20277;-76
2023/06/01 04:20:09;;;;;;;34.90;21.57;;;;;;;;;;5114282;28;20194;-77
2023/06/01 04:22:38;;;;;;;36.50;23.33;;;;;;;;;;5113991;28;20289;-77
2023/06/01 04:25:07;;;;;;;35.30;22.10;;;;;;;;;;5113985;28;20257;-77
2023/06/01 04:27:36;;;;;;;40.57;23.07;;;;;;;;;;5114095;28;20205;-77
2023/06/01 04:30:03;;;;;;;40.07;22.37;;;;;;;;;;5114496;28;20194;-76
2023/06/01 04:32:31;;;;;;;40.83;23.03;;;;;;;;;;5114551;28;20280;-77
2023/06/01 04:34:59;;;;;;;39.53;23.40;;;;;;;;;;5113652;28;20615;-76
2023/06/01 04:37:28;;;;;;;37.77;22.93;;;;;;;;;;5113365;28;20189;-76
2023/06/01 04:39:56;;;;;;;37.27;23.53;;;;;;;;;;5114257;28;20322;-76
2023/06/01 04:42:23;;;;;;;35.10;23.17;;;;;;;;;;5113835;28;20674;-76
2023/06/01 04:44:51;;;;;;;37.57;23.40;;;;;;;;;;5113541;28;20198;-77
2023/06/01 04:47:20;;;;;;;37.60;24.37;;;;;;;;;;5113770;28;20212;-77
2023/06/01 04:49:48;;;;;;;36.30;24.03;;;;;;;;;;5114037;28;20206;-77
2023/06/01 04:52:16;;;;;;;35.90;23.43;;;;;;;;;;5113283;28;20190;-77
2023/06/01 04:54:43;;;;;;;38.63;25.03;;;;;;;;;;5113230;28;20198;-76
2023/06/01 04:57:16;;;;;;;37.67;24.17;;;;;;;;;;5113762;28;20286;-76
2023/06/01 04:59:43;;;;;;;37.77;24.00;;;;;;;;;;5113675;28;20194;-75
2023/06/01 05:02:11;;;;;;;36.00;23.50;;;;;;;;;;5113553;28;20285;-76
2023/06/01 05:04:39;;;;;;;34.77;24.13;;;;;;;;;;5113121;28;20666;-75
2023/06/01 05:07:06;;;;;;;37.97;25.00;;;;;;;;;;5113178;28;20618;-75
2023/06/01 05:09:33;;;;;;;36.93;23.60;;;;;;;;;;5113597;28;20296;-76
2023/06/01 05:12:01;;;;;;;35.77;24.80;;;;;;;;;;5113036;28;20793;-77
2023/06/01 05:14:30;;;;;;;41.27;24.63;;;;;;;;;;5113030;28;20198;-77
2023/06/01 05:16:57;;;;;;;35.60;24.77;;;;;;;;;;5113165;28;20201;-77
2023/06/01 05:19:24;;;;;;;34.73;24.37;;;;;;;;;;5113427;27;20261;-78
2023/06/01 05:21:51;;;;;;;36.87;24.47;;;;;;;;;;5112776;28;20194;-78
2023/06/01 05:24:18;;;;;;;36.10;24.27;;;;;;;;;;5112567;28;20197;-76
2023/06/01 05:26:46;;;;;;;37.37;24.53;;;;;;;;;;5112754;28;20665;-77
2023/06/01 05:29:13;;;;;;;33.60;23.00;;;;;;;;;;5112801;28;20288;-76
2023/06/01 05:31:41;;;;;;;34.40;22.13;;;;;;;;;;5112675;28;20293;-77
2023/06/01 05:34:09;;;;;;;30.23;22.33;;;;;;;;;;5112583;28;20261;-77
2023/06/01 05:36:36;;;;;;;30.80;21.27;;;;;;;;;;5112479;27;20284;-77
2023/06/01 05:39:03;;;;;;;32.87;21.23;;;;;;;;;;5112111;28;20243;-78
2023/06/01 05:41:30;;;;;;;30.20;21.80;;;;;;;;;;5112503;28;20202;-77
2023/06/01 05:43:58;;;;;;;27.90;21.20;;;;;;;;;;5108148;28;20259;-77
2023/06/01 05:46:25;;;;;;;28.20;20.97;;;;;;;;;;5112069;28;20320;-76
2023/06/01 05:48:55;;;;;;;29.80;20.63;;;;;;;;;;5112339;28;20198;-77
2023/06/01 05:51:22;;;;;;;31.02;20.48;;;;;;;;;;5111844;28;20193;-78
2023/06/01 05:53:49;;;;;;;28.02;20.00;;;;;;;;;;5111973;28;20217;-77
2023/06/01 05:56:17;;;;;;;29.63;20.23;;;;;;;;;;5112532;28;20284;-79
2023/06/01 05:58:44;;;;;;;31.25;20.67;;;;;;;;;;5112792;27;20194;-77
2023/06/01 06:01:11;;;;;;;24.90;18.67;;;;;;;;;;5112315;28;20213;-77
2023/06/01 06:03:39;;;;;;;25.65;18.98;;;;;;;;;;5112175;28;20622;-78
2023/06/01 06:06:07;;;;;;;25.08;18.85;;;;;;;;;;5112213;28;20225;-77
2023/06/01 06:08:35;;;;;;;25.33;18.92;;;;;;;;;;5112402;28;20285;-79
2023/06/01 06:11:02;;;;;;;24.55;19.17;;;;;;;;;;5112222;28;20198;-77
2023/06/01 06:13:29;;;;;;;26.10;18.80;;;;;;;;;;5112394;28;20725;-77
2023/06/01 06:15:56;;;;;;;23.90;17.73;;;;;;;;;;5093733;28;20566;-78
2023/06/01 06:18:23;;;;;;;24.58;18.38;;;;;;;;;;5091404;28;20272;-78
2023/06/01 06:20:50;;;;;;;19.17;16.98;;;;;;;;;;5091914;28;20285;-78
2023/06/01 06:23:20;;;;;;;21.33;16.67;;;;;;;;;;5091377;28;20290;-78
2023/06/01 06:25:48;;;;;;;20.20;15.85;;;;;;;;;;5091893;28;20233;-79
2023/06/01 06:28:15;;;;;;;19.98;15.95;;;;;;;;;;5091794;28;20202;-78
2023/06/01 06:30:42;;;;;;;22.80;17.63;;;;;;;;;;5091587;28;20199;-78
2023/06/01 06:33:10;;;;;;;18.67;16.58;;;;;;;;;;5091664;28;20197;-79
2023/06/01 06:35:38;;;;;;;21.13;16.60;;;;;;;;;;5091387;28;20313;-79
2023/06/01 06:38:06;;;;;;;20.45;16.42;;;;;;;;;;5091527;28;20190;-78
2023/06/01 06:40:34;;;;;;;22.20;15.80;;;;;;;;;;5091562;28;20229;-79
2023/06/01 06:43:01;;;;;;;19.17;15.52;;;;;;;;;;5091205;28;20294;-79
2023/06/01 06:45:28;;;;;;;17.27;14.90;;;;;;;;;;5091648;28;20194;-78
2023/06/01 06:47:56;;;;;;;18.38;15.38;;;;;;;;;;5091118;28;20285;-80
2023/06/01 06:50:23;;;;;;;20.35;15.40;;;;;;;;;;5091688;28;20638;-79
2023/06/01 06:52:50;;;;;;;18.77;15.30;;;;;;;;;;5090890;28;20770;-80
2023/06/01 06:55:17;;;;;;;17.45;14.50;;;;;;;;;;5091977;28;20628;-78
2023/06/01 06:57:45;;;;;;;18.65;15.25;;;;;;;;;;5091441;28;20194;-79
2023/06/01 07:00:14;;;;;;;19.10;15.02;;;;;;;;;;5091108;28;20718;-80
2023/06/01 07:02:45;;;;;;;15.80;14.15;;;;;;;;;;5091070;28;20298;-80
2023/06/01 07:05:12;;;;;;;16.92;14.20;;;;;;;;;;5091540;28;20285;-79
2023/06/01 07:07:40;;;;;;;16.63;14.35;;;;;;;;;;5091332;28;20316;-79
2023/06/01 07:10:08;;;;;;;16.60;14.48;;;;;;;;;;5091650;28;20277;-79
2023/06/01 07:12:36;;;;;;;18.95;14.63;;;;;;;;;;5091327;28;20277;-79
2023/06/01 07:15:05;;;;;;;18.35;14.55;;;;;;;;;;5102028;28;20285;-78
2023/06/01 07:17:33;;;;;;;16.23;13.05;;;;;;;;;;5111507;28;20197;-79
2023/06/01 07:20:01;;;;;;;17.23;13.52;;;;;;;;;;5111576;28;20284;-79
2023/06/01 07:22:28;;;;;;;18.33;13.98;;;;;;;;;;5111648;28;20194;-79
2023/06/01 07:24:55;;;;;;;19.05;13.68;;;;;;;;;;5111308;28;20602;-79
2023/06/01 07:27:22;;;;;;;19.25;14.02;;;;;;;;;;5111587;28;20768;-79
2023/06/01 07:29:54;;;;;;;16.55;12.80;;;;;;;;;;5111323;28;20758;-79
2023/06/01 07:32:23;;;;;;;15.02;12.30;;;;;;;;;;5111083;28;20198;-79
2023/06/01 07:34:50;;;;;;;16.48;13.65;;;;;;;;;;5113162;28;20337;-79
2023/06/01 07:37:21;;;;;;;16.38;13.10;;;;;;;;;;5115330;27;20194;-79
2023/06/01 07:39:48;;;;;;;16.92;13.07;;;;;;;;;;5115337;28;20190;-80
2023/06/01 07:42:16;;;;;;;13.88;12.35;;;;;;;;;;5115246;28;20293;-80
2023/06/01 07:44:43;;;;;;;15.95;12.00;;;;;;;;;;5115230;28;20193;-80
2023/06/01 07:47:10;;;;;;;14.45;11.77;;;;;;;;;;5114677;28;20371;-80
2023/06/01 07:49:38;;;;;;;19.25;12.68;;;;;;;;;;5115333;28;20293;-80
2023/06/01 07:52:07;;;;;;;15.82;12.35;;;;;;;;;;5115172;28;20265;-79
2023/06/01 07:54:35;;;;;;;16.17;12.15;;;;;;;;;;5115170;28;20198;-79
2023/06/01 07:57:03;;;;;;;14.68;11.73;;;;;;;;;;5115386;28;20198;-79
2023/06/01 07:59:31;;;;;;;15.18;12.23;;;;;;;;;;5115002;28;20202;-79
2023/06/01 08:01:59;;;;;;;13.70;11.10;;;;;;;;;;5114483;28;20193;-80
2023/06/01 08:04:27;;;;;;;14.00;10.50;;;;;;;;;;5114704;28;20193;-79
2023/06/01 08:06:55;;;;;;;15.88;11.45;;;;;;;;;;5114862;28;20316;-79
2023/06/01 08:09:23;;;;;;;15.27;11.40;;;;;;;;;;5115105;28;20202;-77
2023/06/01 08:11:50;;;;;;;12.75;11.27;;;;;;;;;;5114352;27;20209;-80
2023/06/01 08:14:18;;;;;;;12.88;11.50;;;;;;;;;;5113975;28;20228;-79
2023/06/01 08:16:46;;;;;;;17.42;12.27;;;;;;;;;;5114347;28;20703;-79
2023/06/01 08:19:13;;;;;;;13.75;11.70;;;;;;;;;;5114701;28;20190;-80
2023/06/01 08:21:41;;;;;;;15.23;11.90;;;;;;;;;;5114464;28;20221;-79
2023/06/01 08:24:10;;;;;;;15.00;11.70;;;;;;;;;;5114291;28;20202;-79
2023/06/01 08:26:37;;;;;;;14.80;12.05;;;;;;;;;;5114434;28;20224;-80
2023/06/01 08:29:05;;;;;;;13.32;11.95;;;;;;;;;;5113898;28;20289;-80
2023/06/01 08:31:32;;;;;;;17.63;11.73;;;;;;;;;;5114220;28;20288;-80
2023/06/01 08:33:59;;;;;;;15.82;11.63;;;;;;;;;;5114106;28;20292;-79
2023/06/01 08:36:26;;;;;;;13.38;10.82;;;;;;;;;;5114833;27;20288;-80
2023/06/01 08:38:56;;;;;;;14.80;11.13;;;;;;;;;;5113822;28;20232;-79
2023/06/01 08:41:26;;;;;;;14.65;10.73;;;;;;;;;;5114177;28;20206;-80
2023/06/01 08:43:55;;;;;;;12.57;9.82;;;;;;;;;;5113515;28;20225;-80
2023/06/01 08:46:23;;;;;;;12.63;10.35;;;;;;;;;;5114088;28;20232;-80
2023/06/01 08:48:52;;;;;;;13.98;10.68;;;;;;;;;;5113957;28;20197;-80
2023/06/01 08:51:20;;;;;;;12.88;10.52;;;;;;;;;;5113720;28;20289;-80
2023/06/01 08:53:48;;;;;;;12.70;10.63;;;;;;;;;;5114179;28;20284;-80
2023/06/01 08:56:15;;;;;;;14.40;10.95;;;;;;;;;;5113874;28;20285;-80
2023/06/01 08:58:44;;;;;;;11.00;9.55;;;;;;;;;;5113437;27;20280;-81
2023/06/01 09:01:13;;;;;;;12.82;10.57;;;;;;;;;;5113550;28;20229;-80
2023/06/01 09:03:41;;;;;;;13.50;9.85;;;;;;;;;;5113565;28;20290;-81
2023/06/01 09:06:08;;;;;;;13.52;8.90;;;;;;;;;;5113659;28;20285;-80
2023/06/01 09:08:35;;;;;;;11.95;9.85;;;;;;;;;;5113676;28;20285;-81
2023/06/01 09:11:02;;;;;;;12.55;9.70;;;;;;;;;;5113733;28;20226;-80
2023/06/01 09:13:33;;;;;;;14.75;10.20;;;;;;;;;;5112934;27;20193;-80
2023/06/01 09:16:01;;;;;;;11.20;9.68;;;;;;;;;;5110499;28;20276;-80
2023/06/01 09:18:29;;;;;;;12.30;9.00;;;;;;;;;;5112912;28;20258;-80
2023/06/01 09:20:56;;;;;;;13.93;10.00;;;;;;;;;;5113213;28;20221;-80
2023/06/01 09:23:27;;;;;;;11.57;10.05;;;;;;;;;;5113239;28;20201;-81
2023/06/01 09:26:09;;;;;;;13.35;9.73;;;;;;;;;;5111331;28;20198;-81
2023/06/01 09:28:55;;;;;;;12.68;10.30;;;;;;;;;;5110687;28;20308;-81
2023/06/01 09:31:37;;;;;;;14.55;10.30;;;;;;;;;;5093970;28;20197;-81
2023/06/01 09:34:04;;;;;;;12.60;9.57;;;;;;;;;;5092086;28;20285;-81
2023/06/01 09:36:32;;;;;;;10.60;9.02;;;;;;;;;;5096411;28;20663;-80
2023/06/01 09:39:03;;;;;;;12.18;8.88;;;;;;;;;;5092408;28;20289;-81
2023/06/01 09:41:45;;;;;;;11.55;9.68;;;;;;;;;;5114912;27;20216;-81
2023/06/01 09:44:12;;;;;;;11.48;10.15;;;;;;;;;;5113138;28;20198;-81
2023/06/01 09:46:49;;;;;;;11.82;9.30;;;;;;;;;;5112580;28;20304;-80
2023/06/01 09:49:20;;;;;;;13.75;9.75;;;;;;;;;;5112425;28;20189;-80
2023/06/01 09:51:47;;;;;;;14.27;10.27;;;;;;;;;;5112492;28;20189;-80
2023/06/01 09:54:23;;;;;;;11.68;10.27;;;;;;;;;;5113382;27;20281;-81
2023/06/01 09:56:50;;;;;;;11.07;9.93;;;;;;;;;;5132079;27;20279;-81
2023/06/01 09:59:18;;;;;;;13.30;9.55;;;;;;;;;;5115396;27;20197;-80
2023/06/01 10:01:45;;;;;;;12.30;9.88;;;;;;;;;;5112370;28;20296;-82
2023/06/01 10:04:16;;;;;;;11.02;9.00;;;;;;;;;;5112626;28;20300;-81
2023/06/01 10:06:44;;;;;;;9.85;7.68;;;;;;;;;;5112040;27;20217;-81
2023/06/01 10:09:15;;;;;;;8.68;7.43;;;;;;;;;;5112297;28;20261;-81
2023/06/01 10:11:42;;;;;;;14.38;9.80;;;;;;;;;;5112561;28;20202;-80
2023/06/01 10:14:11;;;;;;;10.88;9.05;;;;;;;;;;5111414;28;20280;-81
2023/06/01 10:16:40;;;;;;;12.65;8.55;;;;;;;;;;5106879;28;20664;-80
2023/06/01 10:19:08;;;;;;;10.90;9.38;;;;;;;;;;4751628;28;9999736;-81
2023/06/01 10:21:36;;;;;;;13.18;9.48;;;;;;;;;;5089691;28;20288;-82
2023/06/01 10:24:04;;;;;;;9.15;7.78;;;;;;;;;;5107733;28;20209;-81
2023/06/01 10:26:34;;;;;;;12.40;8.98;;;;;;;;;;5090822;28;20203;-81
2023/06/01 10:29:02;;;;;;;11.90;8.63;;;;;;;;;;5088691;28;20294;-81
2023/06/01 10:31:36;;;;;;;12.13;8.60;;;;;;;;;;5088042;28;20710;-80
2023/06/01 10:34:03;;;;;;;12.68;8.30;;;;;;;;;;5088851;28;20218;-81
2023/06/01 10:36:50;;;;;;;11.18;7.20;;;;;;;;;;5089018;28;20233;-81
2023/06/01 10:39:25;;;;;;;11.95;8.40;;;;;;;;;;5088095;28;20202;-80
2023/06/01 10:41:52;;;;;;;10.50;7.78;;;;;;;;;;5088144;28;20225;-80
2023/06/01 10:44:37;;;;;;;9.93;7.63;;;;;;;;;;5088319;28;20281;-81
2023/06/01 10:47:05;;;;;;;11.35;6.80;;;;;;;;;;5107468;28;20705;-81
2023/06/01 10:49:47;;;;;;;9.68;7.30;;;;;;;;;;5106822;28;20209;-80
2023/06/01 10:52:27;;;;;;;9.93;8.93;;;;;;;;;;5089210;28;20292;-80
2023/06/01 10:54:55;;;;;;;9.68;7.50;;;;;;;;;;5100477;28;20250;-81
2023/06/01 10:57:24;;;;;;;9.65;7.45;;;;;;;;;;5109159;28;20296;-81
2023/06/01 11:00:10;;;;;;;11.00;7.07;;;;;;;;;;5110051;28;20206;-83
2023/06/01 11:02:43;;;;;;;8.48;6.70;;;;;;;;;;5092458;28;20281;-81
2023/06/01 11:05:26;;;;;;;8.90;7.05;;;;;;;;;;5102389;28;20190;-81
2023/06/01 11:07:53;;;;;;;7.72;6.00;;;;;;;;;;5090538;28;20222;-81
2023/06/01 11:10:35;;;;;;;8.82;7.28;;;;;;;;;;5094710;28;20662;-80
2023/06/01 11:13:18;;;;;;;8.65;6.70;;;;;;;;;;5095011;28;20204;-82
2023/06/01 11:16:00;;;;;;;11.50;8.10;;;;;;;;;;5110928;28;20284;-81
2023/06/01 11:18:49;;;;;;;10.88;6.50;;;;;;;;;;5115868;28;20189;-81
2023/06/01 11:21:17;;;;;;;8.00;6.68;;;;;;;;;;5114870;28;20263;-81
2023/06/01 11:23:45;;;;;;;7.65;6.20;;;;;;;;;;5100240;28;20281;-81
2023/06/01 11:26:15;;;;;;;8.15;6.55;;;;;;;;;;5117608;28;20224;-80
2023/06/01 11:28:44;;;;;;;7.68;6.63;;;;;;;;;;5116959;28;20728;-82
2023/06/01 11:31:12;;;;;;;9.18;6.43;;;;;;;;;;5116671;28;20250;-81
2023/06/01 11:33:40;;;;;;;9.23;7.32;;;;;;;;;;5115708;28;20288;-82
2023/06/01 11:36:10;;;;;;;8.75;6.80;;;;;;;;;;5115727;28;20221;-82
2023/06/01 11:38:39;;;;;;;8.05;6.05;;;;;;;;;;5114393;28;20205;-81
2023/06/01 11:41:06;;;;;;;8.63;6.35;;;;;;;;;;5112198;28;20225;-81
2023/06/01 11:43:34;;;;;;;6.47;5.70;;;;;;;;;;5117344;28;20689;-82
2023/06/01 11:46:03;;;;;;;10.55;6.53;;;;;;;;;;5116047;28;20288;-81
2023/06/01 11:48:30;;;;;;;9.25;6.85;;;;;;;;;;5115661;28;20271;-80
2023/06/01 11:50:59;;;;;;;8.60;6.72;;;;;;;;;;5116307;28;20284;-80
2023/06/01 11:53:26;;;;;;;7.95;6.25;;;;;;;;;;5118422;27;20224;-80
2023/06/01 11:55:54;;;;;;;7.85;6.03;;;;;;;;;;5124348;27;20674;-80
2023/06/01 11:58:22;;;;;;;8.70;6.10;;;;;;;;;;5115314;28;20226;-81
2023/06/01 12:00:50;;;;;;;15.02;6.43;;;;;;;;;;5114573;28;20202;-82
2023/06/01 12:03:18;;;;;;;8.52;6.15;;;;;;;;;;5114475;28;20872;-81
2023/06/01 12:05:46;;;;;;;10.05;5.97;;;;;;;;;;5114472;28;20217;-81
2023/06/01 12:08:16;;;;;;;7.38;5.95;;;;;;;;;;5113427;28;20314;-82
2023/06/01 12:10:46;;;;;;;7.97;5.60;;;;;;;;;;5119544;27;20217;-81
2023/06/01 12:13:13;;;;;;;7.28;6.35;;;;;;;;;;5130960;27;20239;-81
2023/06/01 12:15:40;;;;;;;7.50;5.93;;;;;;;;;;5114439;28;20201;-83
2023/06/01 12:18:08;;;;;;;10.32;6.47;;;;;;;;;;5114380;28;20229;-81
2023/06/01 12:20:37;;;;;;;7.10;5.85;;;;;;;;;;5113404;28;20687;-82
2023/06/01 12:23:14;;;;;;;7.50;5.90;;;;;;;;;;5114143;28;20190;-81
2023/06/01 12:25:50;;;;;;;9.35;6.15;;;;;;;;;;5114489;28;20233;-81
2023/06/01 12:28:18;;;;;;;8.05;5.78;;;;;;;;;;5123650;27;20224;-80
2023/06/01 12:30:46;;;;;;;8.80;6.13;;;;;;;;;;5134692;27;20204;-81
2023/06/01 12:33:28;;;;;;;9.73;6.25;;;;;;;;;;5134666;27;20253;-82
2023/06/01 12:35:57;;;;;;;10.23;6.03;;;;;;;;;;5111141;28;20308;-82
2023/06/01 12:38:25;;;;;;;8.07;6.15;;;;;;;;;;5113336;28;20658;-82
2023/06/01 12:41:08;;;;;;;6.30;5.70;;;;;;;;;;5112510;28;20725;-81
2023/06/01 12:43:35;;;;;;;7.30;6.10;;;;;;;;;;5114008;28;20197;-81
2023/06/01 12:46:05;;;;;;;7.22;5.95;;;;;;;;;;5122857;27;20206;-81
2023/06/01 12:48:33;;;;;;;8.45;6.05;;;;;;;;;;5096327;28;20275;-81
2023/06/01 12:51:01;;;;;;;6.50;5.90;;;;;;;;;;5093247;28;20761;-80
2023/06/01 12:53:29;;;;;;;8.80;6.32;;;;;;;;;;5093291;28;20194;-81
2023/06/01 12:55:56;;;;;;;9.45;5.88;;;;;;;;;;5093229;28;20285;-81
2023/06/01 12:58:23;;;;;;;6.28;5.63;;;;;;;;;;5093338;28;20201;-81
2023/06/01 13:00:51;;;;;;;8.27;5.80;;;;;;;;;;5093453;28;20281;-80
2023/06/01 13:03:20;;;;;;;7.07;5.57;;;;;;;;;;5093563;28;20278;-80
2023/06/01 13:05:49;;;;;;;7.78;5.80;;;;;;;;;;5092715;28;20293;-79
2023/06/01 13:08:18;;;;;;;12.80;6.47;;;;;;;;;;5092937;28;20226;-80
2023/06/01 13:10:45;;;;;;;8.98;6.22;;;;;;;;;;5093187;28;20222;-81
2023/06/01 13:13:13;;;;;;;6.40;5.40;;;;;;;;;;5092938;28;20205;-81
2023/06/01 13:15:41;;;;;;;11.23;6.15;;;;;;;;;;5108965;28;20216;-81
2023/06/01 13:18:08;;;;;;;6.60;5.45;;;;;;;;;;5113652;28;20225;-80
2023/06/01 13:20:35;;;;;;;9.32;6.25;;;;;;;;;;5112784;28;20277;-80
2023/06/01 13:23:03;;;;;;;8.80;6.30;;;;;;;;;;5113534;28;20572;-80
2023/06/01 13:25:33;;;;;;;8.10;5.75;;;;;;;;;;5113529;28;20226;-80
2023/06/01 13:28:00;;;;;;;9.20;5.78;;;;;;;;;;5113515;28;20228;-81
2023/06/01 13:30:28;;;;;;;8.82;5.72;;;;;;;;;;5113106;28;20952;-82
2023/06/01 13:32:55;;;;;;;6.60;5.82;;;;;;;;;;5112925;28;20694;-82
2023/06/01 13:35:22;;;;;;;7.47;6.03;;;;;;;;;;5112715;28;20225;-80
2023/06/01 13:37:50;;;;;;;6.80;5.45;;;;;;;;;;5112952;28;20666;-81
2023/06/01 13:40:22;;;;;;;8.30;6.03;;;;;;;;;;5113079;28;20202;-79
2023/06/01 13:42:51;;;;;;;8.73;5.47;;;;;;;;;;5112907;28;20255;-81
2023/06/01 13:45:18;;;;;;;6.90;5.60;;;;;;;;;;5112932;28;20683;-81
2023/06/01 13:47:45;;;;;;;7.30;5.88;;;;;;;;;;5112492;28;20229;-79
2023/06/01 13:50:13;;;;;;;7.22;5.40;;;;;;;;;;5112349;28;20190;-81
2023/06/01 13:52:40;;;;;;;6.50;5.90;;;;;;;;;;5112568;28;20201;-80
2023/06/01 13:55:08;;;;;;;6.70;5.95;;;;;;;;;;5112832;28;20304;-81
2023/06/01 13:57:35;;;;;;;9.68;6.10;;;;;;;;;;5113036;28;20228;-80
2023/06/01 14:00:05;;;;;;;8.82;6.03;;;;;;;;;;5112704;28;20285;-81
2023/06/01 14:02:32;;;;;;;6.75;5.90;;;;;;;;;;5112027;28;20617;-81
2023/06/01 14:05:00;;;;;;;8.93;6.15;;;;;;;;;;5112226;28;20225;-81
2023/06/01 14:07:27;;;;;;;8.65;5.97;;;;;;;;;;5112635;28;20205;-82
2023/06/01 14:09:54;;;;;;;7.43;5.80;;;;;;;;;;5112515;28;20337;-80
2023/06/01 14:12:21;;;;;;;10.25;6.40;;;;;;;;;;5112539;28;20310;-81
2023/06/01 14:14:49;;;;;;;6.60;6.00;;;;;;;;;;5112018;28;20277;-81
2023/06/01 14:17:17;;;;;;;7.38;5.63;;;;;;;;;;5111803;28;20194;-80
2023/06/01 14:19:44;;;;;;;7.10;5.93;;;;;;;;;;5112110;28;20229;-81
2023/06/01 14:22:12;;;;;;;9.32;6.07;;;;;;;;;;5112548;28;20197;-81
2023/06/01 14:24:39;;;;;;;8.02;5.82;;;;;;;;;;5112295;28;20197;-81
2023/06/01 14:27:07;;;;;;;6.93;5.43;;;;;;;;;;5111786;28;20693;-81
2023/06/01 14:29:34;;;;;;;7.70;5.55;;;;;;;;;;5111885;28;20228;-80
2023/06/01 14:32:01;;;;;;;6.35;5.40;;;;;;;;;;5111698;28;20232;-79